createdAt,value
2022-08-26T00:01:58.477Z,27.60
2022-08-26T00:04:32.968Z,27.60
2022-08-26T00:07:06.070Z,27.60
2022-08-26T00:09:40.377Z,27.50
2022-08-26T00:12:13.353Z,27.50
2022-08-26T00:14:46.372Z,27.50
2022-08-26T00:17:19.089Z,27.50
2022-08-26T00:19:52.125Z,27.50
2022-08-26T00:22:29.997Z,27.50
2022-08-26T00:25:15.345Z,27.50
2022-08-26T00:27:50.910Z,27.50
2022-08-26T00:30:27.792Z,27.50
2022-08-26T00:33:02.103Z,27.40
2022-08-26T00:35:36.206Z,27.40
2022-08-26T00:38:09.389Z,27.40
2022-08-26T00:40:54.161Z,27.40
2022-08-26T00:43:30.319Z,27.40
2022-08-26T00:46:31.608Z,27.40
2022-08-26T00:49:13.420Z,27.40
2022-08-26T00:52:00.006Z,27.40
2022-08-26T00:54:38.594Z,27.30
2022-08-26T00:57:18.907Z,27.30
2022-08-26T00:59:57.085Z,27.30
2022-08-26T01:02:29.884Z,27.30
2022-08-26T01:05:04.012Z,27.30
2022-08-26T01:07:36.806Z,27.30
2022-08-26T01:10:14.588Z,27.30
2022-08-26T01:12:52.621Z,27.30
2022-08-26T01:15:32.830Z,27.30
2022-08-26T01:18:06.744Z,27.20
2022-08-26T01:20:57.956Z,27.20
2022-08-26T01:23:40.266Z,27.20
2022-08-26T01:26:23.080Z,27.20
2022-08-26T01:29:01.192Z,27.20
2022-08-26T01:31:41.999Z,27.20
2022-08-26T01:34:23.178Z,27.20
2022-08-26T01:37:21.185Z,27.20
2022-08-26T01:39:56.020Z,27.10
2022-08-26T01:42:30.199Z,27.20
2022-08-26T01:45:09.435Z,27.10
2022-08-26T01:47:43.084Z,27.10
2022-08-26T01:50:28.203Z,27.10
2022-08-26T01:53:10.811Z,27.10
2022-08-26T01:55:46.875Z,27.10
2022-08-26T01:58:26.637Z,27.10
2022-08-26T02:01:00.251Z,27.10
2022-08-26T02:03:38.816Z,27.00
2022-08-26T02:06:14.895Z,27.10
2022-08-26T02:08:52.289Z,27.00
2022-08-26T02:11:24.936Z,27.00
2022-08-26T02:14:04.156Z,27.00
2022-08-26T02:16:43.181Z,27.00
2022-08-26T02:19:22.660Z,27.00
2022-08-26T02:21:58.475Z,27.00
2022-08-26T02:24:49.966Z,27.00
2022-08-26T02:27:33.865Z,27.00
2022-08-26T02:30:22.678Z,26.90
2022-08-26T02:32:55.799Z,27.00
2022-08-26T02:35:29.178Z,27.00
2022-08-26T02:38:03.990Z,27.00
2022-08-26T02:40:44.188Z,26.90
2022-08-26T02:43:17.348Z,26.90
2022-08-26T02:45:50.635Z,26.90
2022-08-26T02:48:25.312Z,26.90
2022-08-26T02:51:01.154Z,26.90
2022-08-26T02:53:35.573Z,26.90
2022-08-26T02:56:09.366Z,26.90
2022-08-26T02:58:42.117Z,26.90
2022-08-26T03:01:24.323Z,26.90
2022-08-26T03:03:58.584Z,26.90
2022-08-26T03:06:31.259Z,26.90
2022-08-26T03:09:05.645Z,26.90
2022-08-26T03:11:38.436Z,26.90
2022-08-26T03:14:10.916Z,26.90
2022-08-26T03:16:45.395Z,26.80
2022-08-26T03:19:24.025Z,26.90
2022-08-26T03:21:57.919Z,26.90
2022-08-26T03:24:31.114Z,26.90
2022-08-26T03:27:05.865Z,26.90
2022-08-26T03:29:58.696Z,26.90
2022-08-26T03:32:31.347Z,26.90
2022-08-26T03:35:04.392Z,26.90
2022-08-26T03:37:38.937Z,26.80
2022-08-26T03:40:12.096Z,26.80
2022-08-26T03:42:45.412Z,26.80
2022-08-26T03:45:19.347Z,26.80
2022-08-26T03:47:52.116Z,26.80
2022-08-26T03:50:26.292Z,26.80
2022-08-26T03:52:59.675Z,26.80
2022-08-26T03:55:33.638Z,26.80
2022-08-26T03:58:06.600Z,26.80
2022-08-26T04:00:41.486Z,26.70
2022-08-26T04:03:33.970Z,26.80
2022-08-26T04:06:07.081Z,26.80
2022-08-26T04:08:40.030Z,26.80
2022-08-26T04:11:28.708Z,26.70
2022-08-26T04:14:07.941Z,26.80
2022-08-26T04:16:42.177Z,26.70
2022-08-26T04:19:16.925Z,26.70
2022-08-26T04:21:53.398Z,26.70
2022-08-26T04:24:27.079Z,26.70
2022-08-26T04:27:03.603Z,26.70
2022-08-26T04:29:40.103Z,26.70
2022-08-26T04:32:13.488Z,26.70
2022-08-26T04:34:46.072Z,26.70
2022-08-26T04:37:19.121Z,26.70
2022-08-26T04:39:52.782Z,26.70
2022-08-26T04:42:26.068Z,26.70
2022-08-26T04:44:59.392Z,26.70
2022-08-26T04:47:32.566Z,26.70
2022-08-26T04:50:07.468Z,26.70
2022-08-26T04:52:40.171Z,26.70
2022-08-26T04:55:13.621Z,26.70
2022-08-26T04:57:46.710Z,26.70
2022-08-26T05:00:20.287Z,26.70
2022-08-26T05:02:53.455Z,26.70
2022-08-26T05:05:26.002Z,26.80
2022-08-26T05:07:58.939Z,26.90
2022-08-26T05:10:31.466Z,27.10
2022-08-26T05:13:04.165Z,27.30
2022-08-26T05:15:44.224Z,27.60
2022-08-26T05:18:22.800Z,27.90
2022-08-26T05:20:56.128Z,28.10
2022-08-26T05:23:34.348Z,28.40
2022-08-26T05:26:08.916Z,28.60
2022-08-26T05:28:42.425Z,28.90
2022-08-26T05:31:18.161Z,29.10
2022-08-26T05:33:51.358Z,29.40
2022-08-26T05:36:27.219Z,29.50
2022-08-26T05:39:01.479Z,29.70
2022-08-26T05:41:38.470Z,29.80
2022-08-26T05:44:13.981Z,29.80
2022-08-26T05:46:46.658Z,29.90
2022-08-26T05:49:19.434Z,30.00
2022-08-26T05:51:51.975Z,30.00
2022-08-26T05:54:24.595Z,30.10
2022-08-26T05:56:57.155Z,30.10
2022-08-26T05:59:29.866Z,30.10
2022-08-26T06:02:06.126Z,30.10
2022-08-26T06:04:39.120Z,30.20
2022-08-26T06:07:12.167Z,30.20
2022-08-26T06:09:46.087Z,30.20
2022-08-26T06:12:18.623Z,30.30
2022-08-26T06:14:51.524Z,30.30
2022-08-26T06:17:24.075Z,30.30
2022-08-26T06:19:58.492Z,30.50
2022-08-26T06:22:49.309Z,30.50
2022-08-26T06:25:38.523Z,30.50
2022-08-26T06:28:11.106Z,30.60
2022-08-26T06:30:46.159Z,30.60
2022-08-26T06:33:19.469Z,30.70
2022-08-26T06:35:52.829Z,30.80
2022-08-26T06:38:25.668Z,30.90
2022-08-26T06:40:59.818Z,30.90
2022-08-26T06:43:32.455Z,30.90
2022-08-26T06:46:09.590Z,30.90
2022-08-26T06:48:45.640Z,30.90
2022-08-26T06:51:22.443Z,30.90
2022-08-26T06:53:59.686Z,30.90
2022-08-26T06:56:39.495Z,30.90
2022-08-26T06:59:12.651Z,31.00
2022-08-26T07:01:45.393Z,31.10
2022-08-26T07:04:21.883Z,31.20
2022-08-26T07:06:55.684Z,31.20
2022-08-26T07:09:33.304Z,31.20
2022-08-26T07:12:06.928Z,31.30
2022-08-26T07:14:40.002Z,31.30
2022-08-26T07:17:16.689Z,31.30
2022-08-26T07:19:49.311Z,31.40
2022-08-26T07:22:21.906Z,31.40
2022-08-26T07:24:55.158Z,31.40
2022-08-26T07:27:28.419Z,31.50
2022-08-26T07:30:01.344Z,31.60
2022-08-26T07:32:34.859Z,31.60
2022-08-26T07:35:07.825Z,31.70
2022-08-26T07:37:40.581Z,31.70
2022-08-26T07:40:13.345Z,31.60
2022-08-26T07:42:48.880Z,31.60
2022-08-26T07:45:21.598Z,31.50
2022-08-26T07:47:55.010Z,31.40
2022-08-26T07:50:49.914Z,31.40
2022-08-26T07:53:22.259Z,31.40
2022-08-26T07:55:57.014Z,31.40
2022-08-26T07:58:30.292Z,31.50
2022-08-26T08:01:03.050Z,31.60
2022-08-26T08:03:37.362Z,31.70
2022-08-26T08:06:10.782Z,31.70
2022-08-26T08:08:43.485Z,31.80
2022-08-26T08:11:16.060Z,31.80
2022-08-26T08:13:50.100Z,31.80
2022-08-26T08:16:32.283Z,31.80
2022-08-26T08:19:06.050Z,31.80
2022-08-26T08:21:38.909Z,31.90
2022-08-26T08:24:11.692Z,31.90
2022-08-26T08:26:46.214Z,32.00
2022-08-26T08:29:18.852Z,32.00
2022-08-26T08:31:57.862Z,32.00
2022-08-26T08:34:31.793Z,32.00
2022-08-26T08:37:08.781Z,32.00
2022-08-26T08:39:43.718Z,32.00
2022-08-26T08:42:43.045Z,32.00
2022-08-26T08:45:21.572Z,32.00
2022-08-26T08:47:58.144Z,32.00
2022-08-26T08:50:38.853Z,32.10
2022-08-26T08:53:23.356Z,32.10
2022-08-26T08:56:11.038Z,32.10
2022-08-26T08:59:19.815Z,32.20
2022-08-26T09:01:53.967Z,32.20
2022-08-26T09:05:02.931Z,32.20
2022-08-26T09:07:48.476Z,32.30
2022-08-26T09:10:40.992Z,32.30
2022-08-26T09:13:25.172Z,32.20
2022-08-26T09:16:14.607Z,32.20
2022-08-26T09:19:20.682Z,32.10
2022-08-26T09:22:05.771Z,32.10
2022-08-26T09:24:48.545Z,32.10
2022-08-26T09:27:43.182Z,32.10
2022-08-26T09:30:25.053Z,32.00
2022-08-26T09:33:00.543Z,32.00
2022-08-26T09:35:36.884Z,31.90
2022-08-26T09:38:26.713Z,32.00
2022-08-26T09:41:05.539Z,31.90
2022-08-26T09:43:38.166Z,31.80
2022-08-26T09:46:19.922Z,31.80
2022-08-26T09:48:53.331Z,31.70
2022-08-26T09:51:32.522Z,31.70
2022-08-26T09:54:05.727Z,31.50
2022-08-26T09:56:41.126Z,31.50
2022-08-26T09:59:13.945Z,31.40
2022-08-26T10:01:46.925Z,31.30
2022-08-26T10:04:30.965Z,31.30
2022-08-26T10:07:08.420Z,31.30
2022-08-26T10:09:44.716Z,31.20
2022-08-26T10:12:23.206Z,31.20
2022-08-26T10:15:03.506Z,31.20
2022-08-26T10:17:47.467Z,31.20
2022-08-26T10:20:26.828Z,31.20
2022-08-26T10:23:08.765Z,31.10
2022-08-26T10:25:59.762Z,31.20
2022-08-26T10:28:48.313Z,31.10
2022-08-26T10:31:43.327Z,31.00
2022-08-26T10:34:17.761Z,31.00
2022-08-26T10:37:15.216Z,30.90
2022-08-26T10:39:59.366Z,30.90
2022-08-26T10:42:40.769Z,30.80
2022-08-26T10:45:16.974Z,30.80
2022-08-26T10:47:54.986Z,30.80
2022-08-26T10:50:43.241Z,30.80
2022-08-26T10:53:32.674Z,30.70
2022-08-26T10:56:15.801Z,30.80
2022-08-26T10:58:57.559Z,30.80
2022-08-26T11:02:04.091Z,30.80
2022-08-26T11:04:55.672Z,30.70
2022-08-26T11:07:39.464Z,30.70
2022-08-26T11:10:21.124Z,30.70
2022-08-26T11:12:56.015Z,30.70
2022-08-26T11:15:29.720Z,30.70
2022-08-26T11:18:09.159Z,30.70
2022-08-26T11:20:47.121Z,30.70
2022-08-26T11:23:22.841Z,30.60
2022-08-26T11:25:59.740Z,30.60
2022-08-26T11:28:50.369Z,30.60
2022-08-26T11:31:25.715Z,30.60
2022-08-26T11:34:08.837Z,30.60
2022-08-26T11:36:54.847Z,30.50
2022-08-26T11:39:55.451Z,30.50
2022-08-26T11:42:37.204Z,30.40
2022-08-26T11:45:22.504Z,30.30
2022-08-26T11:47:56.180Z,30.20
2022-08-26T11:50:29.545Z,30.10
2022-08-26T11:53:04.569Z,30.10
2022-08-26T11:55:45.164Z,30.10
2022-08-26T11:58:22.322Z,30.10
2022-08-26T12:01:00.142Z,30.00
2022-08-26T12:03:52.671Z,30.00
2022-08-26T12:06:45.019Z,30.00
2022-08-26T12:09:30.152Z,29.90
2022-08-26T12:12:15.025Z,29.90
2022-08-26T12:14:48.069Z,29.90
2022-08-26T12:17:27.694Z,29.90
2022-08-26T12:20:00.248Z,29.90
2022-08-26T12:22:36.249Z,29.90
2022-08-26T12:25:10.425Z,29.80
2022-08-26T12:27:45.755Z,29.80
2022-08-26T12:30:26.011Z,29.70
2022-08-26T12:33:22.817Z,29.70
2022-08-26T12:35:56.999Z,29.80
2022-08-26T12:38:31.293Z,29.80
2022-08-26T12:41:03.984Z,29.80
2022-08-26T12:43:45.433Z,29.80
2022-08-26T12:46:24.801Z,29.90
2022-08-26T12:49:01.420Z,29.90
2022-08-26T12:51:35.540Z,29.90
2022-08-26T12:54:14.508Z,29.90
2022-08-26T12:56:47.266Z,29.80
2022-08-26T12:59:26.504Z,29.80
2022-08-26T13:01:59.264Z,29.80
2022-08-26T13:04:44.191Z,29.80
2022-08-26T13:07:24.567Z,29.80
2022-08-26T13:09:59.089Z,29.80
2022-08-26T13:12:37.435Z,29.80
2022-08-26T13:15:10.204Z,29.80
2022-08-26T13:17:42.847Z,29.80
2022-08-26T13:20:15.465Z,29.80
2022-08-26T13:22:53.879Z,29.80
2022-08-26T13:25:31.563Z,29.80
2022-08-26T13:28:04.218Z,29.70
2022-08-26T13:30:36.804Z,29.70
2022-08-26T13:33:10.889Z,29.70
2022-08-26T13:35:45.227Z,29.70
2022-08-26T13:38:22.387Z,29.70
2022-08-26T13:41:06.176Z,29.70
2022-08-26T13:43:38.817Z,29.70
2022-08-26T13:46:11.626Z,29.60
2022-08-26T13:48:44.806Z,29.60
2022-08-26T13:51:18.902Z,29.60
2022-08-26T13:53:52.311Z,29.50
2022-08-26T13:56:27.693Z,29.50
2022-08-26T13:59:01.562Z,29.50
2022-08-26T14:01:34.252Z,29.50
2022-08-26T14:04:07.407Z,29.50
2022-08-26T14:06:40.074Z,29.50
2022-08-26T14:09:12.382Z,29.40
2022-08-26T14:11:53.816Z,29.40
2022-08-26T14:14:27.605Z,29.40
2022-08-26T14:17:00.618Z,29.40
2022-08-26T14:19:33.378Z,29.40
2022-08-26T14:22:05.967Z,29.40
2022-08-26T14:24:38.512Z,29.40
2022-08-26T14:27:11.380Z,29.40
2022-08-26T14:29:44.145Z,29.40
2022-08-26T14:32:25.692Z,29.40
2022-08-26T14:34:58.371Z,29.40
2022-08-26T14:37:31.802Z,29.40
2022-08-26T14:40:06.475Z,29.40
2022-08-26T14:42:39.262Z,29.40
2022-08-26T14:45:16.075Z,29.40
2022-08-26T14:47:50.121Z,29.40
2022-08-26T14:50:26.400Z,29.40
2022-08-26T14:53:17.415Z,29.30
2022-08-26T14:55:50.730Z,29.30
2022-08-26T14:58:23.289Z,29.30
2022-08-26T15:00:55.663Z,29.30
2022-08-26T15:03:28.684Z,29.30
2022-08-26T15:06:01.426Z,29.20
2022-08-26T15:08:36.775Z,29.20
2022-08-26T15:11:09.342Z,29.20
2022-08-26T15:13:41.776Z,29.20
2022-08-26T15:16:15.213Z,29.20
2022-08-26T15:18:47.765Z,29.20
2022-08-26T15:21:20.432Z,29.20
2022-08-26T15:23:54.067Z,29.20
2022-08-26T15:26:28.231Z,29.30
2022-08-26T15:29:04.888Z,29.30
2022-08-26T15:31:37.971Z,29.30
2022-08-26T15:34:16.008Z,29.20
2022-08-26T15:36:49.215Z,29.20
2022-08-26T15:39:21.644Z,29.20
2022-08-26T15:41:56.358Z,29.20
2022-08-26T15:44:29.207Z,29.20
2022-08-26T15:47:01.788Z,29.20
2022-08-26T15:49:34.186Z,29.20
2022-08-26T15:52:06.801Z,29.20
2022-08-26T15:54:39.840Z,29.20
2022-08-26T15:57:15.307Z,29.20
2022-08-26T15:59:49.171Z,29.20
2022-08-26T16:02:22.996Z,29.20
2022-08-26T16:04:55.979Z,29.20
2022-08-26T16:07:32.457Z,29.20
2022-08-26T16:10:05.637Z,29.20
2022-08-26T16:12:38.845Z,29.20
2022-08-26T16:15:12.479Z,29.20
2022-08-26T16:17:46.450Z,29.20
2022-08-26T16:20:19.479Z,29.20
2022-08-26T16:22:52.648Z,29.20
2022-08-26T16:25:28.173Z,29.20
2022-08-26T16:28:01.194Z,29.20
2022-08-26T16:30:38.991Z,29.20
2022-08-26T16:33:12.843Z,29.20
2022-08-26T16:35:55.175Z,29.20
2022-08-26T16:38:27.781Z,29.20
2022-08-26T16:41:01.350Z,29.20
2022-08-26T16:43:34.477Z,29.20
2022-08-26T16:46:08.038Z,29.20
2022-08-26T16:48:41.130Z,29.20
2022-08-26T16:51:16.347Z,29.20
2022-08-26T16:53:49.500Z,29.20
2022-08-26T16:56:30.610Z,29.20
2022-08-26T16:59:09.280Z,29.20
2022-08-26T17:01:45.663Z,29.20
2022-08-26T17:04:20.014Z,29.10
2022-08-26T17:06:52.894Z,29.10
2022-08-26T17:09:26.858Z,29.20
2022-08-26T17:11:59.522Z,29.20
2022-08-26T17:14:33.709Z,29.20
2022-08-26T17:17:07.189Z,29.10
2022-08-26T17:19:47.221Z,29.20
2022-08-26T17:22:20.344Z,29.20
2022-08-26T17:24:53.208Z,29.10
2022-08-26T17:27:26.221Z,29.10
2022-08-26T17:29:59.859Z,29.10
2022-08-26T17:32:32.502Z,29.10
2022-08-26T17:35:06.908Z,29.10
2022-08-26T17:37:39.724Z,29.10
2022-08-26T17:40:15.690Z,29.10
2022-08-26T17:42:48.749Z,29.00
2022-08-26T17:45:21.915Z,29.00
2022-08-26T17:47:56.283Z,29.00
2022-08-26T17:50:28.853Z,29.00
2022-08-26T17:53:02.096Z,29.00
2022-08-26T17:55:34.917Z,29.00
2022-08-26T17:58:07.901Z,29.00
2022-08-26T18:00:47.584Z,29.00
2022-08-26T18:03:20.542Z,28.90
2022-08-26T18:05:53.775Z,28.90
2022-08-26T18:08:26.630Z,28.90
2022-08-26T18:10:59.540Z,28.90
2022-08-26T18:13:32.426Z,28.90
2022-08-26T18:16:06.557Z,28.90
2022-08-26T18:18:40.422Z,28.90
2022-08-26T18:21:17.997Z,28.90
2022-08-26T18:23:51.665Z,28.90
2022-08-26T18:26:28.159Z,28.90
2022-08-26T18:29:02.127Z,28.80
2022-08-26T18:31:35.981Z,28.80
2022-08-26T18:34:13.064Z,28.80
2022-08-26T18:36:45.905Z,28.90
2022-08-26T18:39:19.542Z,28.90
2022-08-26T18:41:56.248Z,28.80
2022-08-26T18:44:28.773Z,28.80
2022-08-26T18:47:01.254Z,28.80
2022-08-26T18:49:33.861Z,28.90
2022-08-26T18:52:06.334Z,28.80
2022-08-26T18:54:39.093Z,28.80
2022-08-26T18:57:12.313Z,28.80
2022-08-26T18:59:45.908Z,28.80
2022-08-26T19:02:43.173Z,28.80
2022-08-26T19:05:25.654Z,28.80
2022-08-26T19:07:58.285Z,28.80
2022-08-26T19:10:30.657Z,28.80
2022-08-26T19:13:03.572Z,28.80
2022-08-26T19:15:40.972Z,28.80
2022-08-26T19:18:15.342Z,28.80
2022-08-26T19:20:48.297Z,28.80
2022-08-26T19:23:31.484Z,28.80
2022-08-26T19:26:06.516Z,28.80
2022-08-26T19:28:42.305Z,28.80
2022-08-26T19:31:14.906Z,28.80
2022-08-26T19:33:47.473Z,28.80
2022-08-26T19:36:23.781Z,28.80
2022-08-26T19:38:56.905Z,28.80
2022-08-26T19:41:37.091Z,28.80
2022-08-26T19:44:33.776Z,28.80
2022-08-26T19:47:09.041Z,28.70
2022-08-26T19:49:41.752Z,28.70
2022-08-26T19:52:14.627Z,28.70
2022-08-26T19:54:47.973Z,28.70
2022-08-26T19:57:20.580Z,28.70
2022-08-26T19:59:52.970Z,28.70
2022-08-26T20:02:25.610Z,28.70
2022-08-26T20:04:58.027Z,28.70
2022-08-26T20:07:30.529Z,28.70
2022-08-26T20:10:03.599Z,28.70
2022-08-26T20:12:36.381Z,28.70
2022-08-26T20:15:11.635Z,28.60
2022-08-26T20:17:44.256Z,28.60
2022-08-26T20:20:35.535Z,28.60
2022-08-26T20:23:08.503Z,28.60
2022-08-26T20:25:43.035Z,28.60
2022-08-26T20:28:15.616Z,28.60
2022-08-26T20:30:48.021Z,28.60
2022-08-26T20:33:21.022Z,28.60
2022-08-26T20:35:53.588Z,28.60
2022-08-26T20:38:26.217Z,28.60
2022-08-26T20:40:58.784Z,28.60
2022-08-26T20:43:31.364Z,28.60
2022-08-26T20:46:03.878Z,28.60
2022-08-26T20:48:40.841Z,28.60
2022-08-26T20:51:13.579Z,28.50
2022-08-26T20:53:47.630Z,28.60
2022-08-26T20:56:25.161Z,28.50
2022-08-26T20:59:00.642Z,28.50
2022-08-26T21:01:35.288Z,28.50
2022-08-26T21:04:14.245Z,28.50
2022-08-26T21:06:52.094Z,28.50
2022-08-26T21:09:26.138Z,28.50
2022-08-26T21:11:59.397Z,28.50
2022-08-26T21:14:32.178Z,28.40
2022-08-26T21:17:04.974Z,28.40
2022-08-26T21:19:37.762Z,28.40
2022-08-26T21:22:10.324Z,28.40
2022-08-26T21:24:42.634Z,28.40
2022-08-26T21:27:19.567Z,28.40
2022-08-26T21:29:59.106Z,28.40
2022-08-26T21:32:31.794Z,28.40
2022-08-26T21:35:04.405Z,28.30
2022-08-26T21:37:36.871Z,28.40
2022-08-26T21:40:10.421Z,28.30
2022-08-26T21:42:43.034Z,28.30
2022-08-26T21:45:15.697Z,28.30
2022-08-26T21:47:48.109Z,28.20
2022-08-26T21:50:20.767Z,28.30
2022-08-26T21:52:53.129Z,28.20
2022-08-26T21:55:25.850Z,28.20
2022-08-26T21:57:58.422Z,28.30
2022-08-26T22:00:30.981Z,28.20
2022-08-26T22:03:03.778Z,28.20
2022-08-26T22:05:45.837Z,28.20
2022-08-26T22:08:23.098Z,28.20
2022-08-26T22:11:01.907Z,28.20
2022-08-26T22:13:37.193Z,28.20
2022-08-26T22:16:10.513Z,28.20
2022-08-26T22:18:45.976Z,28.20
2022-08-26T22:21:21.893Z,28.20
2022-08-26T22:23:56.231Z,28.20
2022-08-26T22:26:32.858Z,28.20
2022-08-26T22:29:06.964Z,28.20
2022-08-26T22:31:40.408Z,28.20
2022-08-26T22:34:17.522Z,28.20
2022-08-26T22:36:50.672Z,28.20
2022-08-26T22:39:25.476Z,28.20
2022-08-26T22:41:58.129Z,28.20
2022-08-26T22:44:32.689Z,28.20
2022-08-26T22:47:05.587Z,28.20
2022-08-26T22:49:38.163Z,28.20
2022-08-26T22:52:10.540Z,28.10
2022-08-26T22:54:43.081Z,28.10
2022-08-26T22:57:16.751Z,28.10
2022-08-26T22:59:49.184Z,28.10
2022-08-26T23:02:21.818Z,28.10
2022-08-26T23:04:55.131Z,28.10
2022-08-26T23:07:27.786Z,28.10
2022-08-26T23:10:00.420Z,28.00
2022-08-26T23:12:33.746Z,28.00
2022-08-26T23:15:09.111Z,28.00
2022-08-26T23:17:41.914Z,28.00
2022-08-26T23:20:16.355Z,28.00
2022-08-26T23:22:49.002Z,28.00
2022-08-26T23:25:21.957Z,28.00
2022-08-26T23:27:57.022Z,28.00
2022-08-26T23:30:31.537Z,28.00
2022-08-26T23:33:04.682Z,28.00
2022-08-26T23:35:37.256Z,28.00
2022-08-26T23:38:13.935Z,28.00
2022-08-26T23:40:48.624Z,28.00
2022-08-26T23:43:22.083Z,27.90
2022-08-26T23:45:54.774Z,28.00
2022-08-26T23:48:27.164Z,28.00
2022-08-26T23:51:17.961Z,28.00
2022-08-26T23:53:50.628Z,28.00
2022-08-26T23:56:23.184Z,27.90
2022-08-26T23:58:56.029Z,28.00
